Sharonville, Ohio
Current Conditions -  °F | °C
As of 6:53 AM on Friday 28 Nov 2014 (Local Time) from KHAO Reporting Station
Overcast Overcast  
Wind Chill: 26°   Ceiling: 3400
Heat Index: 26°   Visibility: 10mi
Dew Point: 17°   Wind: 3mph
Humidity: 69%   Direction: 360°N
Pressure: 30.42"   Gusts: NA
Location:  39.27°N, 84.41°W
Report Text: KHAO 281153Z AUTO 36003KT 10SM OVC034 M03/M08 A3042 RMK AO2 SLP310 60000 T10331083 11022 21044 53006
Loading
Personal Weather Stations






























Interactive Weather Map New forecast layout! Learn more

10-Day Weather Forecast

Advertisements
Track Severe Weather on mobile